createdAt,value
2022-12-31T00:00:22.227Z,47.50
2022-12-31T00:03:10.123Z,42.10
2022-12-31T00:05:37.737Z,50.90
2022-12-31T00:08:04.960Z,37.50
2022-12-31T00:10:34.285Z,29.00
2022-12-31T00:13:01.358Z,36.70
2022-12-31T00:15:28.731Z,31.70
2022-12-31T00:17:55.893Z,45.30
2022-12-31T00:20:22.997Z,45.60
2022-12-31T00:22:50.550Z,39.50
2022-12-31T00:25:17.704Z,29.00
2022-12-31T00:27:44.830Z,32.00
2022-12-31T00:30:12.598Z,36.90
2022-12-31T00:32:39.636Z,39.10
2022-12-31T00:35:07.487Z,32.30
2022-12-31T00:37:34.623Z,33.60
2022-12-31T00:40:01.784Z,43.60
2022-12-31T00:42:28.989Z,32.10
2022-12-31T00:44:56.005Z,29.70
2022-12-31T00:47:24.727Z,43.20
2022-12-31T00:49:52.073Z,37.00
2022-12-31T00:52:19.351Z,36.50
2022-12-31T00:54:46.476Z,21.50
2022-12-31T00:57:13.989Z,38.90
2022-12-31T00:59:41.496Z,43.80
2022-12-31T01:02:08.821Z,41.70
2022-12-31T01:04:36.030Z,30.60
2022-12-31T01:07:03.152Z,64.30
2022-12-31T01:09:30.199Z,54.60
2022-12-31T01:11:57.328Z,67.50
2022-12-31T01:14:24.451Z,60.20
2022-12-31T01:16:53.484Z,51.80
2022-12-31T01:19:23.868Z,100.90
2022-12-31T01:21:51.767Z,53.00
2022-12-31T01:24:19.698Z,146.90
2022-12-31T01:26:47.274Z,67.20
2022-12-31T01:29:14.788Z,63.10
2022-12-31T01:31:41.849Z,45.60
2022-12-31T01:34:09.851Z,30.40
2022-12-31T01:36:38.146Z,34.20
2022-12-31T01:39:07.472Z,43.20
2022-12-31T01:41:41.724Z,40.50
2022-12-31T01:44:11.835Z,42.50
2022-12-31T01:46:58.484Z,36.40
2022-12-31T01:49:36.703Z,39.90
2022-12-31T01:52:06.528Z,31.60
2022-12-31T01:54:38.044Z,33.80
2022-12-31T01:57:06.986Z,32.00
2022-12-31T01:59:34.538Z,37.40
2022-12-31T02:02:02.162Z,32.90
2022-12-31T02:04:29.871Z,33.60
2022-12-31T02:07:02.784Z,29.30
2022-12-31T02:09:31.608Z,30.30
2022-12-31T02:11:58.707Z,40.70
2022-12-31T02:14:29.228Z,25.30
2022-12-31T02:17:02.479Z,28.40
2022-12-31T02:20:05.259Z,27.10
2022-12-31T02:22:41.270Z,31.60
2022-12-31T02:25:52.596Z,28.20
2022-12-31T02:28:25.766Z,33.60
2022-12-31T02:31:06.422Z,25.90
2022-12-31T02:33:43.040Z,28.90
2022-12-31T02:36:17.451Z,29.80
2022-12-31T02:38:47.654Z,32.00
2022-12-31T02:41:37.101Z,27.70
2022-12-31T02:44:27.524Z,30.40
2022-12-31T02:47:09.767Z,28.50
2022-12-31T02:50:02.595Z,29.90
2022-12-31T02:52:50.414Z,24.90
2022-12-31T02:55:26.779Z,25.00
2022-12-31T02:57:59.897Z,27.50
2022-12-31T03:00:48.216Z,27.90
2022-12-31T03:03:15.396Z,28.60
2022-12-31T03:05:45.064Z,25.20
2022-12-31T03:08:12.124Z,24.00
2022-12-31T03:10:39.430Z,27.50
2022-12-31T03:13:06.507Z,30.20
2022-12-31T03:15:34.647Z,27.10
2022-12-31T03:18:01.704Z,26.90
2022-12-31T03:20:57.332Z,26.30
2022-12-31T03:23:28.411Z,26.50
2022-12-31T03:25:57.151Z,28.70
2022-12-31T03:28:26.554Z,29.60
2022-12-31T03:30:56.679Z,26.70
2022-12-31T03:33:24.431Z,25.60
2022-12-31T03:35:53.081Z,27.20
2022-12-31T03:38:20.990Z,26.50
2022-12-31T03:40:50.858Z,25.00
2022-12-31T03:43:19.671Z,26.20
2022-12-31T03:45:58.385Z,26.30
2022-12-31T03:48:26.383Z,28.40
2022-12-31T03:50:53.470Z,28.60
2022-12-31T03:53:20.621Z,29.10
2022-12-31T03:55:52.279Z,23.50
2022-12-31T03:58:19.419Z,20.80
2022-12-31T04:00:46.520Z,21.80
2022-12-31T04:03:13.660Z,24.00
2022-12-31T04:05:41.388Z,22.60
2022-12-31T04:08:08.493Z,25.90
2022-12-31T04:10:35.552Z,23.30
2022-12-31T04:13:04.827Z,23.30
2022-12-31T04:15:32.420Z,25.90
2022-12-31T04:17:59.491Z,22.80
2022-12-31T04:20:26.550Z,22.20
2022-12-31T04:22:53.606Z,21.50
2022-12-31T04:25:20.691Z,22.10
2022-12-31T04:27:47.936Z,30.20
2022-12-31T04:30:15.482Z,24.20
2022-12-31T04:32:42.916Z,14.90
2022-12-31T04:35:11.728Z,25.30
2022-12-31T04:37:39.260Z,21.30
2022-12-31T04:40:07.767Z,26.70
2022-12-31T04:42:36.277Z,21.80
2022-12-31T04:45:04.395Z,18.90
2022-12-31T04:47:31.468Z,20.20
2022-12-31T04:49:58.593Z,19.40
2022-12-31T04:52:25.675Z,16.30
2022-12-31T04:54:52.997Z,14.80
2022-12-31T04:57:20.126Z,16.60
2022-12-31T04:59:47.424Z,20.00
2022-12-31T05:02:15.158Z,21.50
2022-12-31T05:04:43.801Z,27.50
2022-12-31T05:07:10.927Z,21.30
2022-12-31T05:09:37.999Z,15.40
2022-12-31T05:12:05.453Z,20.20
2022-12-31T05:14:32.530Z,25.20
2022-12-31T05:17:01.344Z,19.30
2022-12-31T05:19:28.455Z,19.20
2022-12-31T05:22:14.156Z,19.70
2022-12-31T05:24:41.262Z,22.30
2022-12-31T05:27:08.332Z,18.40
2022-12-31T05:29:35.376Z,22.00
2022-12-31T05:32:02.453Z,17.60
2022-12-31T05:34:29.606Z,18.50
2022-12-31T05:36:56.728Z,22.80
2022-12-31T05:39:23.800Z,16.70
2022-12-31T05:41:51.727Z,17.10
2022-12-31T05:44:18.855Z,18.10
2022-12-31T05:46:47.241Z,25.10
2022-12-31T05:49:14.558Z,22.20
2022-12-31T05:51:41.728Z,27.20
2022-12-31T05:54:08.758Z,21.80
2022-12-31T05:56:36.852Z,15.40
2022-12-31T05:59:04.205Z,16.40
2022-12-31T06:01:31.377Z,14.40
2022-12-31T06:03:58.767Z,15.80
2022-12-31T06:06:26.141Z,18.30
2022-12-31T06:08:53.757Z,16.50
2022-12-31T06:11:20.856Z,18.30
2022-12-31T06:13:48.009Z,14.20
2022-12-31T06:16:15.178Z,14.20
2022-12-31T06:18:42.358Z,15.10
2022-12-31T06:23:36.427Z,14.60
2022-12-31T06:26:06.702Z,18.50
2022-12-31T06:28:33.882Z,13.80
2022-12-31T06:31:03.279Z,17.10
2022-12-31T06:33:30.555Z,18.80
2022-12-31T06:36:02.766Z,15.80
2022-12-31T06:38:31.361Z,18.50
2022-12-31T06:40:58.516Z,20.30
2022-12-31T06:43:25.614Z,16.70
2022-12-31T06:45:52.638Z,17.70
2022-12-31T06:48:19.837Z,20.50
2022-12-31T06:50:46.967Z,23.10
2022-12-31T06:53:14.188Z,20.90
2022-12-31T06:55:42.279Z,25.60
2022-12-31T06:58:13.890Z,25.10
2022-12-31T07:00:58.003Z,21.30
2022-12-31T07:03:42.116Z,34.10
2022-12-31T07:06:21.834Z,36.90
2022-12-31T07:09:14.096Z,33.90
2022-12-31T07:11:54.534Z,27.10
2022-12-31T07:14:37.711Z,23.10
2022-12-31T07:17:16.947Z,152.40
2022-12-31T07:19:57.906Z,69.80
2022-12-31T07:22:25.613Z,28.40
2022-12-31T07:24:53.068Z,31.30
2022-12-31T07:27:36.095Z,25.00
2022-12-31T07:30:18.036Z,24.50
2022-12-31T07:33:19.131Z,22.60
2022-12-31T07:35:55.447Z,19.00
2022-12-31T07:38:34.787Z,16.20
2022-12-31T07:41:27.205Z,18.60
2022-12-31T07:44:35.802Z,16.90
2022-12-31T07:47:06.005Z,22.70
2022-12-31T07:49:34.070Z,22.30
2022-12-31T07:52:02.557Z,20.20
2022-12-31T07:54:29.655Z,14.80
2022-12-31T07:56:57.856Z,14.60
2022-12-31T07:59:44.661Z,16.70
2022-12-31T08:02:40.351Z,18.50
2022-12-31T08:05:33.955Z,21.80
2022-12-31T08:08:09.472Z,26.20
2022-12-31T08:10:54.991Z,20.80
2022-12-31T08:13:22.218Z,103.90
2022-12-31T08:15:49.586Z,227.80
2022-12-31T08:18:16.931Z,129.70
2022-12-31T08:21:20.712Z,99.70
2022-12-31T08:24:05.372Z,42.60
2022-12-31T08:26:49.465Z,31.70
2022-12-31T08:29:38.400Z,30.70
2022-12-31T08:32:08.982Z,29.70
2022-12-31T08:35:08.397Z,25.60
2022-12-31T08:37:42.014Z,22.40
2022-12-31T08:40:28.599Z,22.10
2022-12-31T08:43:21.651Z,19.60
2022-12-31T08:45:51.352Z,28.20
2022-12-31T08:48:33.599Z,23.60
2022-12-31T08:51:01.098Z,23.20
2022-12-31T08:53:28.437Z,19.50
2022-12-31T08:56:06.866Z,28.30
2022-12-31T08:59:08.199Z,25.20
2022-12-31T09:02:08.810Z,19.20
2022-12-31T09:04:58.026Z,15.20
2022-12-31T09:07:56.687Z,21.70
2022-12-31T09:11:07.750Z,13.10
2022-12-31T09:13:52.587Z,15.50
2022-12-31T09:16:22.582Z,14.00
2022-12-31T09:18:49.883Z,12.80
2022-12-31T09:21:17.057Z,13.10
2022-12-31T09:23:44.479Z,14.80
2022-12-31T09:26:30.407Z,12.60
2022-12-31T09:29:08.810Z,17.10
2022-12-31T09:31:35.865Z,21.50
2022-12-31T09:34:24.396Z,16.00
2022-12-31T09:36:57.716Z,18.20
2022-12-31T09:39:42.277Z,23.90
2022-12-31T09:42:18.659Z,18.10
2022-12-31T09:45:01.098Z,15.60
2022-12-31T09:47:49.197Z,18.30
2022-12-31T09:50:22.205Z,12.70
2022-12-31T09:53:08.095Z,16.50
2022-12-31T09:55:43.337Z,17.40
2022-12-31T09:58:38.289Z,17.90
2022-12-31T10:01:23.639Z,20.40
2022-12-31T10:03:53.730Z,17.60
2022-12-31T10:06:32.435Z,16.50
2022-12-31T10:09:02.532Z,16.80
2022-12-31T10:11:57.333Z,19.00
2022-12-31T10:15:05.747Z,28.50
2022-12-31T10:17:51.759Z,19.50
2022-12-31T10:20:54.397Z,15.30
2022-12-31T10:23:27.364Z,18.20
2022-12-31T10:26:00.241Z,47.10
2022-12-31T10:28:55.402Z,27.90
2022-12-31T10:32:00.617Z,21.10
2022-12-31T10:34:36.932Z,20.90
2022-12-31T10:37:16.375Z,29.20
2022-12-31T10:39:54.761Z,25.00
2022-12-31T10:42:56.071Z,41.20
2022-12-31T10:45:48.076Z,18.70
2022-12-31T10:48:33.716Z,18.10
2022-12-31T10:51:25.694Z,22.00
2022-12-31T10:54:14.807Z,21.50
2022-12-31T10:56:53.964Z,20.60
2022-12-31T10:59:58.076Z,23.50
2022-12-31T11:02:40.836Z,14.90
2022-12-31T11:05:23.534Z,16.70
2022-12-31T11:07:51.909Z,17.60
2022-12-31T11:10:40.312Z,14.50
2022-12-31T11:13:45.128Z,17.40
2022-12-31T11:16:32.658Z,23.70
2022-12-31T11:19:12.047Z,24.50
2022-12-31T11:21:41.360Z,22.80
2022-12-31T11:24:47.567Z,28.80
2022-12-31T11:27:33.084Z,22.40
2022-12-31T11:30:42.023Z,20.70
2022-12-31T11:33:45.451Z,22.30
2022-12-31T11:36:35.992Z,20.30
2022-12-31T11:39:42.233Z,25.80
2022-12-31T11:42:24.836Z,56.90
2022-12-31T11:45:01.503Z,57.90
2022-12-31T11:47:44.745Z,342.30
2022-12-31T11:50:37.137Z,81.20
2022-12-31T11:53:26.316Z,137.80
2022-12-31T11:56:15.893Z,81.30
2022-12-31T11:58:47.743Z,90.30
2022-12-31T12:01:22.455Z,46.60
2022-12-31T12:03:49.818Z,86.20
2022-12-31T12:06:29.006Z,39.70
2022-12-31T12:09:01.749Z,29.10
2022-12-31T12:11:32.245Z,25.00
2022-12-31T12:13:59.269Z,20.20
2022-12-31T12:16:28.453Z,16.90
2022-12-31T12:19:08.521Z,23.00
2022-12-31T12:21:46.263Z,32.90
2022-12-31T12:24:27.908Z,27.10
2022-12-31T12:26:57.441Z,33.30
2022-12-31T12:29:29.238Z,66.50
2022-12-31T12:31:57.656Z,64.50
2022-12-31T12:34:29.243Z,101.00
2022-12-31T12:36:56.686Z,28.10
2022-12-31T12:39:29.325Z,19.50
2022-12-31T12:42:00.532Z,104.80
2022-12-31T12:44:27.987Z,47.10
2022-12-31T12:46:56.244Z,41.70
2022-12-31T12:49:26.726Z,27.20
2022-12-31T12:52:06.219Z,53.30
2022-12-31T12:54:53.287Z,56.20
2022-12-31T12:58:01.548Z,77.60
2022-12-31T13:00:38.037Z,75.10
2022-12-31T13:04:07.428Z,57.00
2022-12-31T13:06:49.305Z,44.70
2022-12-31T13:09:45.891Z,35.20
2022-12-31T13:14:56.088Z,29.30
2022-12-31T13:17:38.242Z,47.00
2022-12-31T13:20:19.227Z,63.30
2022-12-31T13:23:01.601Z,48.40
2022-12-31T13:26:02.992Z,27.40
2022-12-31T13:28:32.688Z,49.00
2022-12-31T13:31:06.823Z,45.90
2022-12-31T13:33:48.066Z,45.80
2022-12-31T13:36:19.769Z,42.30
2022-12-31T13:38:50.885Z,36.40
2022-12-31T13:41:41.305Z,26.40
2022-12-31T13:44:18.185Z,45.80
2022-12-31T13:46:51.560Z,100.00
2022-12-31T13:49:21.682Z,68.50
2022-12-31T13:51:56.482Z,48.90
2022-12-31T13:54:41.341Z,61.50
2022-12-31T13:57:29.748Z,58.30
2022-12-31T14:00:02.351Z,57.10
2022-12-31T14:02:45.566Z,48.30
2022-12-31T14:05:16.569Z,55.60
2022-12-31T14:07:49.351Z,184.70
2022-12-31T14:10:16.938Z,322.40
2022-12-31T14:13:13.297Z,484.60
2022-12-31T14:16:05.280Z,178.50
2022-12-31T14:18:50.993Z,157.90
2022-12-31T14:21:43.210Z,322.70
2022-12-31T14:24:16.320Z,102.40
2022-12-31T14:26:51.926Z,75.60
2022-12-31T14:31:50.348Z,62.50
2022-12-31T14:34:35.981Z,40.30
2022-12-31T14:37:16.441Z,46.00
2022-12-31T14:39:55.136Z,40.80
2022-12-31T14:42:37.367Z,35.70
2022-12-31T14:45:32.470Z,21.50
2022-12-31T14:48:37.664Z,26.70
2022-12-31T14:51:05.689Z,16.90
2022-12-31T14:53:33.202Z,18.30
2022-12-31T14:56:01.651Z,22.50
2022-12-31T14:58:35.891Z,19.00
2022-12-31T15:01:19.364Z,22.70
2022-12-31T15:03:46.836Z,24.20
2022-12-31T15:06:28.185Z,26.70
2022-12-31T15:09:37.811Z,36.30
2022-12-31T15:12:11.052Z,62.90
2022-12-31T15:14:52.648Z,54.80
2022-12-31T15:17:44.986Z,56.80
2022-12-31T15:20:47.449Z,31.00
2022-12-31T15:23:31.818Z,15.10
2022-12-31T15:26:01.181Z,26.40
2022-12-31T15:28:34.991Z,19.30
2022-12-31T15:31:17.483Z,20.80
2022-12-31T15:34:06.921Z,16.90
2022-12-31T15:36:38.992Z,19.30
2022-12-31T15:39:12.451Z,15.50
2022-12-31T15:42:10.371Z,19.80
2022-12-31T15:44:51.609Z,15.40
2022-12-31T15:47:41.548Z,15.40
2022-12-31T15:50:16.193Z,16.10
2022-12-31T15:52:48.143Z,12.50
2022-12-31T15:55:48.611Z,19.40
2022-12-31T15:58:23.246Z,20.40
2022-12-31T16:01:07.182Z,29.30
2022-12-31T16:03:34.901Z,57.20
2022-12-31T16:06:04.887Z,21.10
2022-12-31T16:08:34.454Z,15.00
2022-12-31T16:11:04.976Z,15.50
2022-12-31T16:13:35.377Z,23.80
2022-12-31T16:16:06.367Z,13.80
2022-12-31T16:18:40.557Z,21.60
2022-12-31T16:21:23.045Z,21.70
2022-12-31T16:23:52.759Z,21.60
2022-12-31T16:26:20.160Z,23.80
2022-12-31T16:28:49.332Z,30.00
2022-12-31T16:31:20.128Z,25.30
2022-12-31T16:33:47.879Z,27.20
2022-12-31T16:36:21.338Z,22.00
2022-12-31T16:38:49.307Z,31.90
2022-12-31T16:41:21.885Z,16.40
2022-12-31T16:43:50.601Z,14.20
2022-12-31T16:46:28.918Z,13.10
2022-12-31T16:48:59.792Z,16.80
2022-12-31T16:51:32.673Z,19.90
2022-12-31T16:54:01.955Z,13.80
2022-12-31T16:56:33.577Z,15.30
2022-12-31T16:59:05.239Z,28.00
2022-12-31T17:01:35.990Z,19.40
2022-12-31T17:04:09.108Z,28.10
2022-12-31T17:06:36.518Z,31.00
2022-12-31T17:09:20.956Z,27.00
2022-12-31T17:11:51.347Z,22.80
2022-12-31T17:14:23.296Z,12.70
2022-12-31T17:17:02.237Z,22.40
2022-12-31T17:19:45.210Z,34.50
2022-12-31T17:22:34.272Z,30.00
2022-12-31T17:25:22.485Z,30.40
2022-12-31T17:28:18.449Z,19.50
2022-12-31T17:30:45.678Z,16.30
2022-12-31T17:33:12.885Z,16.00
2022-12-31T17:35:42.561Z,14.60
2022-12-31T17:38:22.080Z,10.90
2022-12-31T17:40:51.745Z,14.80
2022-12-31T17:43:23.946Z,18.40
2022-12-31T17:45:52.289Z,17.00
2022-12-31T17:48:20.636Z,9.20
2022-12-31T17:50:48.433Z,13.70
2022-12-31T17:53:16.019Z,14.30
2022-12-31T17:55:46.094Z,16.20
2022-12-31T17:58:34.511Z,13.40
2022-12-31T18:01:05.223Z,13.40
2022-12-31T18:03:32.773Z,14.20
2022-12-31T18:06:00.237Z,14.50
2022-12-31T18:08:27.489Z,14.70
2022-12-31T18:10:55.486Z,17.20
2022-12-31T18:13:27.449Z,176.50
2022-12-31T18:15:55.177Z,145.00
2022-12-31T18:18:26.584Z,155.20
2022-12-31T18:21:00.097Z,116.90
2022-12-31T18:23:41.653Z,55.60
2022-12-31T18:26:17.325Z,55.50
2022-12-31T18:28:44.913Z,90.80
2022-12-31T18:31:19.183Z,43.70
2022-12-31T18:33:47.328Z,30.40
2022-12-31T18:36:16.891Z,42.90
2022-12-31T18:38:44.291Z,40.70
2022-12-31T18:41:24.417Z,41.60
2022-12-31T18:43:51.573Z,48.40
2022-12-31T18:46:21.510Z,52.80
2022-12-31T18:48:48.952Z,24.00
2022-12-31T18:51:17.622Z,32.60
2022-12-31T18:53:45.423Z,24.30
2022-12-31T18:56:14.829Z,57.10
2022-12-31T18:58:42.753Z,32.80
2022-12-31T19:01:26.402Z,27.20
2022-12-31T19:03:58.217Z,21.60
2022-12-31T19:06:25.799Z,22.50
2022-12-31T19:08:53.028Z,17.50
2022-12-31T19:11:21.048Z,14.80
2022-12-31T19:13:48.774Z,24.80
2022-12-31T19:16:16.185Z,24.80
2022-12-31T19:18:43.298Z,24.10
2022-12-31T19:21:15.341Z,28.80
2022-12-31T19:23:42.725Z,26.00
2022-12-31T19:26:17.546Z,24.20
2022-12-31T19:28:45.979Z,25.20
2022-12-31T19:31:13.770Z,24.10
2022-12-31T19:33:41.193Z,17.40
2022-12-31T19:36:16.905Z,15.10
2022-12-31T19:38:45.058Z,14.10
2022-12-31T19:41:18.055Z,14.40
2022-12-31T19:43:46.757Z,19.50
2022-12-31T19:46:15.624Z,18.10
2022-12-31T19:48:43.304Z,19.50
2022-12-31T19:51:15.120Z,12.70
2022-12-31T19:53:42.206Z,17.80
2022-12-31T19:56:18.843Z,17.70
2022-12-31T19:58:46.397Z,22.50
2022-12-31T20:01:22.052Z,18.50
2022-12-31T20:03:50.067Z,16.30
2022-12-31T20:06:18.397Z,17.00
2022-12-31T20:08:46.677Z,11.50
2022-12-31T20:11:17.510Z,9.70
2022-12-31T20:13:45.196Z,9.80
2022-12-31T20:16:15.639Z,9.50
2022-12-31T20:18:46.333Z,10.50
2022-12-31T20:21:25.803Z,13.20
2022-12-31T20:23:54.403Z,17.30
2022-12-31T20:26:22.858Z,66.00
2022-12-31T20:28:51.019Z,19.40
2022-12-31T20:31:21.599Z,33.50
2022-12-31T20:33:49.381Z,38.40
2022-12-31T20:36:17.670Z,36.10
2022-12-31T20:38:45.065Z,35.80
2022-12-31T20:41:18.108Z,18.60
2022-12-31T20:43:46.177Z,17.40
2022-12-31T20:46:16.544Z,14.00
2022-12-31T20:48:45.162Z,13.10
2022-12-31T20:51:14.191Z,27.60
2022-12-31T20:54:05.938Z,107.10
2022-12-31T20:56:35.261Z,42.30
2022-12-31T20:59:03.541Z,31.90
2022-12-31T21:01:55.104Z,29.30
2022-12-31T21:04:18.323Z,23.20
2022-12-31T21:06:45.628Z,18.50
2022-12-31T21:09:12.723Z,21.80
2022-12-31T21:11:58.897Z,19.10
2022-12-31T21:14:26.078Z,14.30
2022-12-31T21:16:53.152Z,13.50
2022-12-31T21:19:20.197Z,16.90
2022-12-31T21:21:48.359Z,14.80
2022-12-31T21:24:20.206Z,11.50
2022-12-31T21:26:50.601Z,10.40
2022-12-31T21:29:17.711Z,11.60
2022-12-31T21:31:44.810Z,10.10
2022-12-31T21:34:11.929Z,25.50
2022-12-31T21:36:39.010Z,14.60
2022-12-31T21:39:06.026Z,11.10
2022-12-31T21:41:51.120Z,15.70
2022-12-31T21:44:20.961Z,20.20
2022-12-31T21:47:25.187Z,10.90
2022-12-31T21:49:36.434Z,22.20
2022-12-31T21:52:22.634Z,25.70
2022-12-31T21:55:08.341Z,10.20
2022-12-31T21:57:59.040Z,13.20
2022-12-31T22:00:43.157Z,8.90
2022-12-31T22:03:24.494Z,21.00
2022-12-31T22:06:09.546Z,12.40
2022-12-31T22:08:37.182Z,11.20
2022-12-31T22:11:04.438Z,14.40
2022-12-31T22:13:32.304Z,15.40
2022-12-31T22:16:04.914Z,12.50
2022-12-31T22:18:39.183Z,32.60
2022-12-31T22:21:19.333Z,15.70
2022-12-31T22:23:49.691Z,16.40
2022-12-31T22:26:19.134Z,16.30
2022-12-31T22:28:47.203Z,14.90
2022-12-31T22:31:24.674Z,21.70
2022-12-31T22:33:52.490Z,14.00
2022-12-31T22:36:22.291Z,22.00
2022-12-31T22:38:50.973Z,17.20
2022-12-31T22:41:20.781Z,23.20
2022-12-31T22:43:51.794Z,23.00
2022-12-31T22:46:21.974Z,20.20
2022-12-31T22:48:49.552Z,22.30
2022-12-31T22:51:17.944Z,19.10
2022-12-31T22:53:45.795Z,19.00
2022-12-31T22:56:16.248Z,14.60
2022-12-31T22:58:44.227Z,14.90
2022-12-31T23:01:19.204Z,18.00
2022-12-31T23:03:47.327Z,15.90
2022-12-31T23:06:15.208Z,26.70
2022-12-31T23:09:02.442Z,23.30
2022-12-31T23:11:30.111Z,21.70
2022-12-31T23:14:16.121Z,11.40
2022-12-31T23:20:07.621Z,18.40
2022-12-31T23:25:20.657Z,21.00
2022-12-31T23:27:47.757Z,40.20
2022-12-31T23:30:14.861Z,154.60
2022-12-31T23:32:42.311Z,81.20
2022-12-31T23:35:10.276Z,33.10
2022-12-31T23:37:37.669Z,31.10
2022-12-31T23:40:05.304Z,22.40
2022-12-31T23:42:32.425Z,36.40
2022-12-31T23:44:59.475Z,18.50
2022-12-31T23:47:26.578Z,23.30
2022-12-31T23:49:53.702Z,17.80
2022-12-31T23:52:20.903Z,11.00
2022-12-31T23:54:48.127Z,8.10
2022-12-31T23:57:15.352Z,13.20
2022-12-31T23:59:42.452Z,12.70
